Albany, Vermont
Current Conditions -  °F | °C
As of 3:15 PM on Friday 31 Oct 2014 (Local Time) from KEFK Reporting Station
Scattered Clouds Scattered Clouds  
Wind Chill: 42°   Ceiling: Unl
Heat Index: 45°   Visibility: 10mi
Dew Point: 30°   Wind: 6mph
Humidity: 55%   Direction: 360°N
Pressure: 30"   Gusts: NA
Location:  44.73°N, 72.38°W
Report Text: KEFK 311915Z AUTO 36005KT 10SM SCT042 07/M01 A3000 RMK AO2 T00731011
Loading
Personal Weather Stations






























Interactive Weather Map
Tropical Storm Tracking
New forecast layout! Learn more

10-Day Weather Forecast

Advertisements
Track Severe Weather on mobile